createdAt,value
2018-06-18T00:00:29.944Z,1.90
2018-06-18T00:01:04.122Z,2.00
2018-06-18T00:01:37.660Z,1.80
2018-06-18T00:02:11.473Z,2.20
2018-06-18T00:02:45.686Z,2.37
2018-06-18T00:03:19.194Z,1.90
2018-06-18T00:03:53.136Z,2.10
2018-06-18T00:04:27.240Z,1.80
2018-06-18T00:05:00.869Z,2.05
2018-06-18T00:05:35.035Z,1.80
2018-06-18T00:06:08.817Z,1.90
2018-06-18T00:06:43.128Z,2.45
2018-06-18T00:07:16.820Z,2.10
2018-06-18T00:07:51.160Z,2.00
2018-06-18T00:08:24.764Z,1.60
2018-06-18T00:08:57.972Z,2.10
2018-06-18T00:09:31.691Z,1.70
2018-06-18T00:10:05.241Z,2.10
2018-06-18T00:10:38.863Z,1.95
2018-06-18T00:11:12.489Z,1.98
2018-06-18T00:11:46.087Z,1.92
2018-06-18T00:12:20.568Z,2.10
2018-06-18T00:12:54.179Z,2.22
2018-06-18T00:13:27.431Z,2.05
2018-06-18T00:14:01.026Z,2.42
2018-06-18T00:14:34.609Z,1.98
2018-06-18T00:15:08.219Z,1.80
2018-06-18T00:15:42.391Z,1.92
2018-06-18T00:16:15.990Z,1.90
2018-06-18T00:16:50.251Z,2.00
2018-06-18T00:17:23.853Z,1.95
2018-06-18T00:17:58.399Z,1.70
2018-06-18T00:18:32.021Z,1.80
2018-06-18T00:19:07.187Z,2.17
2018-06-18T00:19:40.810Z,2.42
2018-06-18T00:20:15.126Z,1.98
2018-06-18T00:20:48.502Z,1.72
2018-06-18T00:21:22.060Z,2.12
2018-06-18T00:21:55.682Z,1.85
2018-06-18T00:22:29.280Z,2.02
2018-06-18T00:23:03.596Z,1.93
2018-06-18T00:23:37.152Z,1.62
2018-06-18T00:24:11.397Z,1.95
2018-06-18T00:24:47.583Z,1.90
2018-06-18T00:25:21.139Z,1.90
2018-06-18T00:25:54.754Z,1.75
2018-06-18T00:26:28.315Z,2.00
2018-06-18T00:27:02.642Z,1.53
2018-06-18T00:27:36.957Z,1.80
2018-06-18T00:28:10.582Z,2.50
2018-06-18T00:28:44.120Z,2.02
2018-06-18T00:29:18.417Z,2.20
2018-06-18T00:29:52.490Z,2.25
2018-06-18T00:30:26.220Z,2.10
2018-06-18T00:31:00.764Z,1.90
2018-06-18T00:31:34.342Z,1.90
2018-06-18T00:32:08.441Z,2.00
2018-06-18T00:32:42.781Z,1.92
2018-06-18T00:33:16.414Z,1.90
2018-06-18T00:33:52.122Z,1.98
2018-06-18T00:34:25.767Z,1.87
2018-06-18T00:34:58.974Z,1.80
2018-06-18T00:35:32.627Z,2.08
2018-06-18T00:36:06.211Z,2.20
2018-06-18T00:36:39.806Z,2.05
2018-06-18T00:37:13.404Z,2.05
2018-06-18T00:37:47.052Z,2.12
2018-06-18T00:38:20.721Z,2.10
2018-06-18T00:38:54.893Z,1.85
2018-06-18T00:39:28.085Z,1.70
2018-06-18T00:40:03.034Z,1.85
2018-06-18T00:40:37.892Z,1.90
2018-06-18T00:41:11.819Z,1.90
2018-06-18T00:41:45.408Z,2.00
2018-06-18T00:42:19.772Z,2.00
2018-06-18T00:42:53.720Z,1.70
2018-06-18T00:43:28.431Z,2.27
2018-06-18T00:44:02.482Z,2.20
2018-06-18T00:44:36.799Z,1.90
2018-06-18T00:45:11.616Z,2.00
2018-06-18T00:45:45.254Z,2.00
2018-06-18T00:46:18.922Z,2.05
2018-06-18T00:46:52.539Z,1.90
2018-06-18T00:47:26.751Z,2.20
2018-06-18T00:48:01.139Z,1.75
2018-06-18T00:48:35.301Z,1.98
2018-06-18T00:49:08.874Z,1.60
2018-06-18T00:49:42.555Z,2.00
2018-06-18T00:50:16.159Z,1.87
2018-06-18T00:50:50.763Z,2.12
2018-06-18T00:51:24.986Z,1.82
2018-06-18T00:51:59.278Z,1.80
2018-06-18T00:52:32.826Z,1.80
2018-06-18T00:53:06.435Z,2.13
2018-06-18T00:53:40.927Z,1.90
2018-06-18T00:54:14.633Z,1.85
2018-06-18T00:54:50.668Z,1.82
2018-06-18T00:55:35.453Z,1.85
2018-06-18T00:56:12.401Z,2.00
2018-06-18T00:56:46.912Z,1.90
2018-06-18T00:57:20.997Z,1.75
2018-06-18T00:57:54.868Z,1.85
2018-06-18T00:58:28.527Z,1.55
2018-06-18T00:59:02.157Z,1.70
2018-06-18T00:59:35.763Z,2.05
2018-06-18T01:00:09.358Z,1.98
2018-06-18T01:00:42.955Z,1.92
2018-06-18T01:01:16.552Z,1.70
2018-06-18T01:01:50.149Z,1.98
2018-06-18T01:02:24.379Z,2.05
2018-06-18T01:02:58.013Z,1.83
2018-06-18T01:03:31.616Z,1.75
2018-06-18T01:04:05.771Z,1.92
2018-06-18T01:04:40.049Z,2.25
2018-06-18T01:05:13.890Z,2.10
2018-06-18T01:05:47.512Z,2.12
2018-06-18T01:06:22.464Z,1.80
2018-06-18T01:06:56.623Z,2.15
2018-06-18T01:07:29.856Z,2.00
2018-06-18T01:08:03.649Z,1.87
2018-06-18T01:08:37.239Z,1.75
2018-06-18T01:09:11.973Z,2.10
2018-06-18T01:09:45.538Z,2.30
2018-06-18T01:10:19.146Z,1.85
2018-06-18T01:10:52.753Z,2.08
2018-06-18T01:11:27.107Z,2.12
2018-06-18T01:12:00.654Z,2.08
2018-06-18T01:12:34.207Z,2.05
2018-06-18T01:13:08.161Z,2.10
2018-06-18T01:13:41.872Z,2.50
2018-06-18T01:14:15.620Z,2.12
2018-06-18T01:14:49.200Z,2.10
2018-06-18T01:15:22.762Z,1.75
2018-06-18T01:15:56.372Z,2.35
2018-06-18T01:16:29.590Z,2.05
2018-06-18T01:17:03.188Z,2.10
2018-06-18T01:17:37.498Z,1.90
2018-06-18T01:18:11.069Z,2.45
2018-06-18T01:18:44.659Z,1.85
2018-06-18T01:19:18.491Z,2.00
2018-06-18T01:19:53.190Z,1.90
2018-06-18T01:20:26.837Z,2.40
2018-06-18T01:21:01.009Z,1.87
2018-06-18T01:21:34.577Z,1.70
2018-06-18T01:22:08.164Z,2.30
2018-06-18T01:22:44.906Z,2.30
2018-06-18T01:25:01.168Z,2.10
2018-06-18T01:25:34.811Z,2.00
2018-06-18T01:26:08.345Z,1.98
2018-06-18T01:26:41.955Z,1.92
2018-06-18T01:27:16.139Z,2.20
2018-06-18T01:27:49.760Z,2.15
2018-06-18T01:28:23.305Z,2.40
2018-06-18T01:28:57.259Z,2.45
2018-06-18T01:29:31.396Z,2.35
2018-06-18T01:30:05.089Z,2.37
2018-06-18T01:30:39.361Z,2.00
2018-06-18T01:31:12.976Z,2.17
2018-06-18T01:31:46.923Z,2.05
2018-06-18T01:32:21.083Z,1.80
2018-06-18T01:32:55.261Z,2.20
2018-06-18T01:33:28.851Z,2.12
2018-06-18T01:34:02.535Z,2.00
2018-06-18T01:34:36.722Z,2.22
2018-06-18T01:35:10.508Z,2.23
2018-06-18T01:35:44.072Z,2.30
2018-06-18T01:36:17.615Z,2.12
2018-06-18T01:36:51.972Z,2.02
2018-06-18T01:37:25.566Z,2.17
2018-06-18T01:37:59.218Z,2.10
2018-06-18T01:38:32.850Z,2.05
2018-06-18T01:39:08.227Z,2.30
2018-06-18T01:39:41.801Z,2.05
2018-06-18T01:40:15.862Z,2.30
2018-06-18T01:40:50.192Z,2.05
2018-06-18T01:41:23.771Z,2.45
2018-06-18T01:41:58.048Z,2.10
2018-06-18T01:42:31.660Z,2.00
2018-06-18T01:43:05.256Z,2.23
2018-06-18T01:43:39.503Z,2.42
2018-06-18T01:44:13.926Z,2.30
2018-06-18T01:44:48.184Z,1.92
2018-06-18T01:45:21.843Z,2.37
2018-06-18T01:45:55.927Z,2.02
2018-06-18T01:46:29.868Z,2.40
2018-06-18T01:47:03.486Z,2.10
2018-06-18T01:47:37.123Z,2.22
2018-06-18T01:48:11.666Z,2.47
2018-06-18T01:48:45.261Z,2.75
2018-06-18T01:49:19.193Z,2.50
2018-06-18T01:49:53.647Z,2.75
2018-06-18T01:50:28.630Z,2.70
2018-06-18T01:51:02.203Z,2.27
2018-06-18T01:51:35.751Z,2.60
2018-06-18T01:52:10.057Z,2.30
2018-06-18T01:52:43.913Z,2.05
2018-06-18T01:53:17.989Z,2.47
2018-06-18T01:53:52.081Z,2.12
2018-06-18T01:54:25.695Z,2.42
2018-06-18T01:55:00.428Z,2.47
2018-06-18T01:55:34.906Z,2.27
2018-06-18T01:56:08.505Z,2.60
2018-06-18T01:56:42.687Z,2.30
2018-06-18T01:57:17.215Z,2.70
2018-06-18T01:57:50.828Z,2.10
2018-06-18T01:58:24.065Z,2.30
2018-06-18T01:58:57.731Z,2.30
2018-06-18T01:59:31.672Z,2.70
2018-06-18T02:00:05.524Z,2.58
2018-06-18T02:00:39.134Z,2.12
2018-06-18T02:01:12.730Z,2.12
2018-06-18T02:01:47.464Z,2.20
2018-06-18T02:02:21.064Z,2.10
2018-06-18T02:02:55.355Z,2.70
2018-06-18T02:03:28.922Z,2.52
2018-06-18T02:04:03.615Z,2.60
2018-06-18T02:04:37.921Z,2.33
2018-06-18T02:05:11.616Z,2.50
2018-06-18T02:05:45.152Z,2.67
2018-06-18T02:06:18.783Z,2.42
2018-06-18T02:06:52.375Z,2.22
2018-06-18T02:07:27.191Z,2.45
2018-06-18T02:08:01.514Z,2.40
2018-06-18T02:08:35.793Z,2.65
2018-06-18T02:09:12.151Z,2.33
2018-06-18T02:09:47.048Z,2.50
2018-06-18T02:10:20.635Z,2.55
2018-06-18T02:10:54.193Z,2.30
2018-06-18T02:11:27.462Z,2.62
2018-06-18T02:12:01.121Z,2.05
2018-06-18T02:12:35.343Z,2.65
2018-06-18T02:13:08.926Z,2.70
2018-06-18T02:13:42.441Z,2.52
2018-06-18T02:14:16.101Z,2.40
2018-06-18T02:14:49.729Z,2.45
2018-06-18T02:15:23.918Z,2.20
2018-06-18T02:15:57.544Z,2.35
2018-06-18T02:16:31.867Z,2.35
2018-06-18T02:17:05.987Z,2.20
2018-06-18T02:17:39.560Z,2.25
2018-06-18T02:18:13.231Z,2.65
2018-06-18T02:18:46.792Z,2.60
2018-06-18T02:19:20.360Z,2.55
2018-06-18T02:19:54.448Z,2.17
2018-06-18T02:20:28.000Z,2.72
2018-06-18T02:21:01.583Z,2.80
2018-06-18T02:21:36.039Z,2.60
2018-06-18T02:22:09.885Z,2.87
2018-06-18T02:22:43.784Z,2.77
2018-06-18T02:23:18.355Z,2.42
2018-06-18T02:23:51.902Z,2.70
2018-06-18T02:24:26.083Z,3.15
2018-06-18T02:25:00.333Z,2.83
2018-06-18T02:25:33.974Z,2.70
2018-06-18T02:26:07.842Z,2.50
2018-06-18T02:26:41.470Z,2.50
2018-06-18T02:27:18.714Z,2.65
2018-06-18T02:27:57.375Z,2.42
2018-06-18T02:30:39.605Z,2.47
2018-06-18T02:31:18.555Z,2.85
2018-06-18T02:31:57.385Z,2.58
2018-06-18T02:32:36.339Z,2.40
2018-06-18T02:33:15.178Z,2.45
2018-06-18T02:33:54.014Z,2.90
2018-06-18T02:34:32.862Z,2.52
2018-06-18T02:35:15.576Z,2.20
2018-06-18T02:35:54.926Z,2.75
2018-06-18T02:36:33.801Z,2.50
2018-06-18T02:37:12.877Z,2.50
2018-06-18T02:37:52.330Z,2.35
2018-06-18T02:38:32.822Z,2.92
2018-06-18T02:39:11.676Z,2.43
2018-06-18T02:39:50.645Z,2.33
2018-06-18T02:40:29.384Z,2.80
2018-06-18T02:41:02.980Z,2.77
2018-06-18T02:41:37.340Z,2.60
2018-06-18T02:42:11.836Z,2.70
2018-06-18T02:42:46.555Z,2.45
2018-06-18T02:43:19.772Z,2.37
2018-06-18T02:43:54.252Z,2.30
2018-06-18T02:44:27.861Z,2.65
2018-06-18T02:45:01.450Z,2.73
2018-06-18T02:45:35.080Z,2.47
2018-06-18T02:46:10.024Z,2.90
2018-06-18T02:46:44.618Z,2.45
2018-06-18T02:47:18.975Z,2.62
2018-06-18T02:47:54.892Z,2.52
2018-06-18T02:48:28.425Z,2.80
2018-06-18T02:49:02.056Z,2.60
2018-06-18T02:49:35.625Z,2.70
2018-06-18T02:50:09.251Z,2.60
2018-06-18T02:50:43.285Z,2.60
2018-06-18T02:51:17.582Z,2.27
2018-06-18T02:51:51.775Z,2.30
2018-06-18T02:52:25.381Z,3.27
2018-06-18T02:52:58.985Z,2.90
2018-06-18T02:53:33.277Z,2.70
2018-06-18T02:54:08.054Z,2.95
2018-06-18T02:54:42.187Z,2.70
2018-06-18T02:55:15.762Z,2.95
2018-06-18T02:55:50.761Z,2.70
2018-06-18T02:56:31.344Z,3.45
2018-06-18T02:57:07.698Z,2.87
2018-06-18T02:57:41.284Z,2.70
2018-06-18T02:58:14.929Z,2.47
2018-06-18T02:58:48.473Z,2.92
2018-06-18T02:59:21.710Z,2.70
2018-06-18T02:59:55.937Z,3.00
2018-06-18T03:00:29.627Z,2.50
2018-06-18T03:01:04.410Z,2.57
2018-06-18T03:01:39.160Z,3.08
2018-06-18T03:02:13.609Z,3.20
2018-06-18T03:02:47.231Z,2.85
2018-06-18T03:03:20.858Z,3.02
2018-06-18T03:03:54.856Z,2.80
2018-06-18T03:04:28.504Z,2.77
2018-06-18T03:05:02.787Z,2.90
2018-06-18T03:05:36.450Z,2.75
2018-06-18T03:06:10.043Z,2.55
2018-06-18T03:06:43.700Z,3.22
2018-06-18T03:07:18.161Z,2.80
2018-06-18T03:07:52.220Z,2.92
2018-06-18T03:08:25.757Z,2.95
2018-06-18T03:08:59.414Z,3.07
2018-06-18T03:09:33.570Z,2.83
2018-06-18T03:10:07.259Z,2.50
2018-06-18T03:10:41.327Z,3.15
2018-06-18T03:11:15.018Z,3.05
2018-06-18T03:11:49.255Z,3.12
2018-06-18T03:12:23.914Z,3.05
2018-06-18T03:12:58.757Z,2.83
2018-06-18T03:13:33.256Z,2.70
2018-06-18T03:14:07.801Z,2.92
2018-06-18T03:14:41.399Z,2.70
2018-06-18T03:15:15.033Z,2.67
2018-06-18T03:15:48.586Z,2.85
2018-06-18T03:16:22.175Z,3.05
2018-06-18T03:16:55.796Z,3.40
2018-06-18T03:17:30.090Z,3.40
2018-06-18T03:18:03.707Z,2.75
2018-06-18T03:18:42.641Z,3.58
2018-06-18T03:19:21.559Z,2.98
2018-06-18T03:20:00.412Z,2.75
2018-06-18T03:20:39.989Z,2.60
2018-06-18T03:21:19.416Z,2.70
2018-06-18T03:21:58.875Z,3.00
2018-06-18T03:22:38.335Z,2.90
2018-06-18T03:23:17.176Z,2.77
2018-06-18T03:23:56.096Z,3.02
2018-06-18T03:24:35.027Z,3.10
2018-06-18T03:25:14.046Z,3.47
2018-06-18T03:25:52.799Z,3.22
2018-06-18T03:26:31.595Z,3.08
2018-06-18T03:29:11.728Z,3.23
2018-06-18T03:29:46.997Z,2.98
2018-06-18T03:30:20.983Z,3.20
2018-06-18T03:30:54.651Z,2.85
2018-06-18T03:31:28.426Z,3.35
2018-06-18T03:32:05.967Z,3.27
2018-06-18T03:32:39.978Z,3.30
2018-06-18T03:33:14.099Z,3.35
2018-06-18T03:33:47.720Z,3.52
2018-06-18T03:34:21.344Z,3.47
2018-06-18T03:34:54.880Z,3.80
2018-06-18T03:35:28.383Z,3.62
2018-06-18T03:36:02.420Z,3.58
2018-06-18T03:36:36.063Z,3.60
2018-06-18T03:37:12.588Z,3.60
2018-06-18T03:37:46.207Z,3.70
2018-06-18T03:38:19.841Z,3.55
2018-06-18T03:38:53.401Z,3.05
2018-06-18T03:39:27.060Z,3.52
2018-06-18T03:40:01.558Z,3.55
2018-06-18T03:40:35.499Z,3.83
2018-06-18T03:41:09.129Z,3.30
2018-06-18T03:41:46.152Z,3.67
2018-06-18T03:42:19.363Z,3.10
2018-06-18T03:42:52.950Z,3.42
2018-06-18T03:43:26.947Z,3.50
2018-06-18T03:44:05.509Z,3.25
2018-06-18T03:44:44.383Z,3.58
2018-06-18T03:45:33.650Z,3.60
2018-06-18T03:46:07.956Z,3.33
2018-06-18T03:46:41.540Z,3.60
2018-06-18T03:47:24.293Z,3.58
2018-06-18T03:48:01.115Z,4.03
2018-06-18T03:48:34.687Z,3.55
2018-06-18T03:49:08.316Z,3.63
2018-06-18T03:49:41.568Z,3.50
2018-06-18T03:50:15.172Z,3.42
2018-06-18T03:50:48.756Z,3.50
2018-06-18T03:51:22.343Z,3.22
2018-06-18T03:51:55.928Z,3.42
2018-06-18T03:52:29.464Z,3.77
2018-06-18T03:53:04.092Z,3.50
2018-06-18T03:53:37.677Z,3.62
2018-06-18T03:54:11.296Z,3.40
2018-06-18T03:54:44.830Z,3.47
2018-06-18T03:55:21.624Z,3.02
2018-06-18T03:55:58.574Z,3.75
2018-06-18T03:56:32.947Z,2.95
2018-06-18T03:57:06.549Z,3.33
2018-06-18T03:57:40.218Z,3.60
2018-06-18T03:58:13.794Z,3.75
2018-06-18T03:58:47.389Z,3.30
2018-06-18T03:59:20.950Z,3.50
2018-06-18T03:59:57.055Z,3.15
2018-06-18T04:00:34.897Z,3.58
2018-06-18T04:01:57.970Z,3.20
2018-06-18T04:02:40.925Z,3.00
2018-06-18T04:03:19.802Z,3.25
2018-06-18T04:04:00.116Z,3.12
2018-06-18T04:04:48.168Z,3.62
2018-06-18T04:05:26.708Z,3.22
2018-06-18T04:06:05.647Z,3.47
2018-06-18T04:06:44.385Z,3.20
2018-06-18T04:07:24.491Z,3.92
2018-06-18T04:08:00.659Z,3.60
2018-06-18T04:08:35.501Z,3.50
2018-06-18T04:09:14.067Z,3.62
2018-06-18T04:09:52.925Z,3.55
2018-06-18T04:10:33.360Z,3.42
2018-06-18T04:11:12.204Z,3.40
2018-06-18T04:11:51.060Z,3.92
2018-06-18T04:12:24.707Z,4.12
2018-06-18T04:12:58.980Z,3.43
2018-06-18T04:13:32.589Z,3.80
2018-06-18T04:14:06.839Z,3.42
2018-06-18T04:14:40.671Z,3.58
2018-06-18T04:15:14.260Z,3.45
2018-06-18T04:15:47.852Z,3.20
2018-06-18T04:16:21.418Z,3.95
2018-06-18T04:16:55.075Z,3.80
2018-06-18T04:17:28.761Z,3.20
2018-06-18T04:18:02.363Z,3.70
2018-06-18T04:18:40.801Z,3.75
2018-06-18T04:19:14.387Z,3.35
2018-06-18T04:19:48.067Z,3.75
2018-06-18T04:20:22.494Z,3.52
2018-06-18T04:20:56.247Z,3.20
2018-06-18T04:21:31.913Z,3.33
2018-06-18T04:22:05.521Z,3.77
2018-06-18T04:22:39.072Z,3.65
2018-06-18T04:23:12.307Z,3.55
2018-06-18T04:23:46.405Z,3.22
2018-06-18T04:24:20.316Z,3.40
2018-06-18T04:24:53.953Z,3.83
2018-06-18T04:25:27.521Z,3.90
2018-06-18T04:26:01.462Z,3.40
2018-06-18T04:26:35.763Z,3.50
2018-06-18T04:27:09.364Z,3.80
2018-06-18T04:27:43.009Z,3.37
2018-06-18T04:28:16.600Z,3.15
2018-06-18T04:28:50.488Z,3.42
2018-06-18T04:29:23.669Z,3.50
2018-06-18T04:29:56.935Z,3.22
2018-06-18T04:30:30.880Z,3.47
2018-06-18T04:31:04.668Z,3.60
2018-06-18T04:31:38.600Z,3.52
2018-06-18T04:32:12.127Z,3.87
2018-06-18T04:32:45.762Z,3.70
2018-06-18T04:33:23.040Z,3.30
2018-06-18T04:34:08.027Z,3.42
2018-06-18T04:34:44.345Z,4.03
2018-06-18T04:35:18.107Z,3.72
2018-06-18T04:35:51.642Z,3.70
2018-06-18T04:36:25.300Z,3.40
2018-06-18T04:36:59.483Z,3.30
2018-06-18T04:37:33.978Z,3.22
2018-06-18T04:38:07.848Z,3.70
2018-06-18T04:38:42.189Z,3.90
2018-06-18T04:39:15.811Z,3.65
2018-06-18T04:39:50.292Z,3.80
2018-06-18T04:40:23.990Z,4.05
2018-06-18T04:40:58.181Z,3.60
2018-06-18T04:41:32.416Z,3.98
2018-06-18T04:42:11.372Z,3.20
2018-06-18T04:42:50.215Z,3.45
2018-06-18T04:43:29.626Z,3.40
2018-06-18T04:46:16.144Z,3.60
2018-06-18T04:46:55.007Z,4.17
2018-06-18T04:47:34.504Z,3.75
2018-06-18T04:48:13.299Z,3.80
2018-06-18T04:48:52.289Z,3.85
2018-06-18T04:49:33.900Z,3.80
2018-06-18T04:50:12.811Z,3.77
2018-06-18T04:50:51.678Z,3.72
2018-06-18T04:51:25.330Z,3.95
2018-06-18T04:51:58.958Z,3.40
2018-06-18T04:52:32.883Z,4.50
2018-06-18T04:53:06.507Z,4.40
2018-06-18T04:53:40.847Z,3.70
2018-06-18T04:54:14.500Z,4.17
2018-06-18T04:54:48.075Z,4.10
2018-06-18T04:55:22.808Z,3.95
2018-06-18T04:55:56.501Z,3.37
2018-06-18T04:56:30.244Z,3.90
2018-06-18T04:57:03.804Z,4.00
2018-06-18T04:57:38.662Z,4.00
2018-06-18T04:58:12.188Z,3.98
2018-06-18T04:58:45.779Z,3.95
2018-06-18T04:59:20.061Z,4.47
2018-06-18T05:01:00.727Z,3.65
2018-06-18T05:01:35.697Z,4.37
2018-06-18T05:02:09.707Z,4.08
2018-06-18T05:02:43.478Z,4.12
2018-06-18T05:03:18.073Z,4.55
2018-06-18T05:03:52.085Z,4.12
2018-06-18T05:04:25.715Z,4.15
2018-06-18T05:04:59.955Z,4.12
2018-06-18T05:05:33.598Z,4.30
2018-06-18T05:06:07.665Z,4.20
2018-06-18T05:06:42.333Z,3.80
2018-06-18T05:07:17.284Z,4.35
2018-06-18T05:08:02.624Z,3.87
2018-06-18T05:09:17.544Z,4.08
2018-06-18T05:09:59.091Z,3.40
2018-06-18T05:10:33.836Z,4.03
2018-06-18T05:11:07.480Z,3.53
2018-06-18T05:11:41.405Z,4.25
2018-06-18T05:12:15.025Z,4.22
2018-06-18T05:12:49.125Z,4.00
2018-06-18T05:13:23.397Z,4.35
2018-06-18T05:13:57.746Z,3.85
2018-06-18T05:14:32.207Z,3.83
2018-06-18T05:15:05.874Z,3.73
2018-06-18T05:15:40.671Z,3.80
2018-06-18T05:16:15.693Z,5.37
2018-06-18T05:16:49.897Z,4.53
2018-06-18T05:17:24.150Z,4.40
2018-06-18T05:17:58.044Z,3.60
2018-06-18T05:18:32.912Z,32.48
2018-06-18T05:19:07.984Z,9.60
2018-06-18T05:19:41.641Z,5.55
2018-06-18T05:20:15.971Z,7.67
2018-06-18T05:20:49.617Z,5.03
2018-06-18T05:21:23.323Z,3.75
2018-06-18T05:22:00.736Z,3.95
2018-06-18T05:22:36.245Z,3.75
2018-06-18T05:23:14.995Z,3.97
2018-06-18T05:23:48.620Z,3.58
2018-06-18T05:24:22.669Z,3.92
2018-06-18T05:24:57.865Z,3.90
2018-06-18T05:25:32.645Z,4.15
2018-06-18T05:26:06.836Z,6.37
2018-06-18T05:26:45.167Z,5.50
2018-06-18T05:27:19.518Z,6.08
2018-06-18T05:27:54.481Z,3.72
2018-06-18T05:28:28.571Z,4.08
2018-06-18T05:29:02.202Z,4.50
2018-06-18T05:29:35.722Z,24.87
2018-06-18T05:30:14.682Z,33.10
2018-06-18T05:30:47.888Z,23.57
2018-06-18T05:31:21.480Z,20.23
2018-06-18T05:31:55.404Z,11.70
2018-06-18T05:32:29.614Z,38.08
2018-06-18T05:33:03.207Z,13.33
2018-06-18T05:33:36.737Z,8.75
2018-06-18T05:34:11.758Z,8.58
2018-06-18T05:34:45.556Z,4.90
2018-06-18T05:35:19.185Z,7.10
2018-06-18T05:35:53.499Z,4.72
2018-06-18T05:36:27.875Z,5.28
2018-06-18T05:37:04.753Z,5.37
2018-06-18T05:37:46.629Z,4.25
2018-06-18T05:38:29.465Z,4.58
2018-06-18T05:39:03.276Z,4.10
2018-06-18T05:39:36.818Z,4.12
2018-06-18T05:40:10.360Z,4.92
2018-06-18T05:40:43.987Z,4.55
2018-06-18T05:41:18.199Z,4.00
2018-06-18T05:41:51.783Z,3.83
2018-06-18T05:42:25.979Z,4.22
2018-06-18T05:43:00.407Z,4.03
2018-06-18T05:43:34.805Z,4.35
2018-06-18T05:44:08.323Z,4.22
2018-06-18T05:44:42.157Z,4.30
2018-06-18T05:45:15.713Z,4.80
2018-06-18T05:45:50.074Z,7.40
2018-06-18T05:46:23.667Z,5.37
2018-06-18T05:46:58.012Z,7.87
2018-06-18T05:47:32.165Z,12.10
2018-06-18T05:48:06.290Z,10.58
2018-06-18T05:48:41.619Z,7.10
2018-06-18T05:49:15.826Z,6.12
2018-06-18T05:49:49.389Z,4.90
2018-06-18T05:50:23.754Z,4.90
2018-06-18T05:50:57.933Z,4.23
2018-06-18T05:51:32.082Z,4.40
2018-06-18T05:52:07.065Z,5.05
2018-06-18T05:52:40.899Z,3.70
2018-06-18T05:53:14.864Z,3.72
2018-06-18T05:53:48.449Z,4.45
2018-06-18T05:54:21.708Z,4.22
2018-06-18T05:54:55.913Z,4.20
2018-06-18T05:55:30.559Z,4.08
2018-06-18T05:56:05.023Z,4.05
2018-06-18T05:56:38.654Z,3.80
2018-06-18T05:57:13.359Z,4.10
2018-06-18T05:57:47.000Z,3.67
2018-06-18T05:58:20.556Z,3.80
2018-06-18T05:58:54.146Z,3.52
2018-06-18T05:59:27.759Z,3.92
2018-06-18T06:00:01.628Z,4.00
2018-06-18T06:00:35.677Z,3.42
2018-06-18T06:01:10.956Z,3.73
2018-06-18T06:01:45.084Z,3.75
2018-06-18T06:02:19.420Z,3.40
2018-06-18T06:02:53.495Z,3.42
2018-06-18T06:03:27.149Z,3.60
2018-06-18T06:04:00.744Z,3.50
2018-06-18T06:04:34.293Z,3.22
2018-06-18T06:05:07.972Z,3.50
2018-06-18T06:05:41.298Z,3.52
2018-06-18T06:06:15.079Z,3.45
2018-06-18T06:06:48.615Z,3.55
2018-06-18T06:07:22.931Z,3.75
2018-06-18T06:07:56.467Z,3.27
2018-06-18T06:08:30.028Z,3.65
2018-06-18T06:09:03.793Z,3.77
2018-06-18T06:09:38.130Z,3.30
2018-06-18T06:10:11.739Z,3.72
2018-06-18T06:10:46.215Z,3.30
2018-06-18T06:11:20.090Z,3.02
2018-06-18T06:11:54.238Z,2.92
2018-06-18T06:12:27.847Z,4.00
2018-06-18T06:13:01.679Z,3.95
2018-06-18T06:13:35.261Z,3.77
2018-06-18T06:14:08.522Z,3.55
2018-06-18T06:14:42.125Z,3.30
2018-06-18T06:15:15.851Z,3.70
2018-06-18T06:15:49.950Z,4.00
2018-06-18T06:16:23.506Z,3.22
2018-06-18T06:16:57.233Z,3.90
2018-06-18T06:17:30.679Z,3.62
2018-06-18T06:18:04.272Z,3.55
2018-06-18T06:18:37.887Z,3.58
2018-06-18T06:19:12.566Z,3.25
2018-06-18T06:19:46.291Z,3.05
2018-06-18T06:20:20.783Z,3.30
2018-06-18T06:21:01.369Z,3.47
2018-06-18T06:21:35.441Z,3.70
2018-06-18T06:22:09.616Z,3.45
2018-06-18T06:22:43.991Z,3.83
2018-06-18T06:23:17.768Z,3.65
2018-06-18T06:23:51.534Z,3.75
2018-06-18T06:24:25.176Z,3.50
2018-06-18T06:24:58.848Z,3.03
2018-06-18T06:25:33.126Z,3.00
2018-06-18T06:26:07.360Z,3.50
2018-06-18T06:26:41.530Z,3.30
2018-06-18T06:27:15.550Z,3.12
2018-06-18T06:27:49.112Z,3.67
2018-06-18T06:28:23.511Z,3.40
2018-06-18T06:28:57.122Z,3.75
2018-06-18T06:29:31.639Z,3.60
2018-06-18T06:30:06.335Z,3.02
2018-06-18T06:30:40.001Z,2.72
2018-06-18T06:31:14.697Z,3.80
2018-06-18T06:31:49.978Z,3.50
2018-06-18T06:32:23.622Z,4.00
2018-06-18T06:32:57.158Z,3.60
2018-06-18T06:33:31.620Z,3.42
2018-06-18T06:34:05.562Z,3.27
2018-06-18T06:34:39.912Z,3.30
2018-06-18T06:35:17.535Z,3.50
2018-06-18T06:35:51.324Z,3.35
2018-06-18T06:36:26.799Z,3.90
2018-06-18T06:37:00.498Z,5.25
2018-06-18T06:37:34.205Z,4.90
2018-06-18T06:38:07.473Z,3.58
2018-06-18T06:38:41.880Z,3.67
2018-06-18T06:39:15.496Z,4.47
2018-06-18T06:39:49.103Z,3.52
2018-06-18T06:40:23.064Z,3.35
2018-06-18T06:40:57.552Z,3.40
2018-06-18T06:41:31.674Z,3.20
2018-06-18T06:42:06.996Z,3.52
2018-06-18T06:42:40.223Z,3.30
2018-06-18T06:43:13.796Z,3.30
2018-06-18T06:43:47.872Z,3.45
2018-06-18T06:44:21.446Z,3.70
2018-06-18T06:44:54.996Z,3.25
2018-06-18T06:45:28.626Z,3.15
2018-06-18T06:46:02.234Z,3.17
2018-06-18T06:46:35.808Z,3.25
2018-06-18T06:47:09.066Z,3.30
2018-06-18T06:47:42.700Z,2.92
2018-06-18T06:48:16.877Z,3.30
2018-06-18T06:48:50.880Z,3.47
2018-06-18T06:49:25.146Z,3.30
2018-06-18T06:50:00.080Z,3.20
2018-06-18T06:50:34.628Z,3.15
2018-06-18T06:51:08.189Z,3.27
2018-06-18T06:51:42.374Z,3.10
2018-06-18T06:52:16.605Z,3.47
2018-06-18T06:52:50.257Z,3.25
2018-06-18T06:53:23.847Z,3.22
2018-06-18T06:53:57.517Z,3.30
2018-06-18T06:54:31.940Z,3.05
2018-06-18T06:55:06.361Z,3.57
2018-06-18T06:55:40.512Z,3.42
2018-06-18T06:56:15.191Z,3.30
2018-06-18T06:56:48.433Z,3.00
2018-06-18T06:57:22.132Z,3.02
2018-06-18T06:57:56.427Z,3.33
2018-06-18T06:58:30.072Z,3.37
2018-06-18T06:59:04.978Z,2.80
2018-06-18T06:59:38.632Z,3.17
2018-06-18T07:00:13.036Z,3.37
2018-06-18T07:00:50.304Z,2.92
2018-06-18T07:01:30.106Z,3.30
2018-06-18T07:02:04.376Z,3.60
2018-06-18T07:02:38.234Z,3.52
2018-06-18T07:03:12.339Z,3.17
2018-06-18T07:03:46.271Z,3.08
2018-06-18T07:04:20.304Z,3.00
2018-06-18T07:04:53.861Z,3.30
2018-06-18T07:05:27.462Z,2.85
2018-06-18T07:06:01.398Z,3.33
2018-06-18T07:06:36.492Z,3.00
2018-06-18T07:07:10.121Z,3.17
2018-06-18T07:07:43.723Z,3.40
2018-06-18T07:08:17.386Z,3.10
2018-06-18T07:08:51.326Z,3.37
2018-06-18T07:09:25.140Z,2.75
2018-06-18T07:09:58.765Z,3.50
2018-06-18T07:10:32.631Z,3.10
2018-06-18T07:11:06.595Z,3.00
2018-06-18T07:11:40.473Z,2.77
2018-06-18T07:12:14.027Z,2.80
2018-06-18T07:12:47.828Z,3.12
2018-06-18T07:13:21.462Z,3.27
2018-06-18T07:13:55.759Z,3.10
2018-06-18T07:14:29.350Z,3.25
2018-06-18T07:15:02.930Z,2.50
2018-06-18T07:15:36.204Z,3.15
2018-06-18T07:16:09.795Z,3.00
2018-06-18T07:16:43.392Z,3.33
2018-06-18T07:17:17.640Z,3.25
2018-06-18T07:17:51.293Z,3.15
2018-06-18T07:18:24.562Z,3.22
2018-06-18T07:18:58.139Z,3.17
2018-06-18T07:19:32.994Z,2.75
2018-06-18T07:20:06.910Z,2.83
2018-06-18T07:20:40.524Z,2.75
2018-06-18T07:21:14.115Z,2.90
2018-06-18T07:21:48.300Z,2.65
2018-06-18T07:22:21.905Z,2.40
2018-06-18T07:22:55.548Z,2.50
2018-06-18T07:23:29.148Z,2.67
2018-06-18T07:24:02.834Z,3.00
2018-06-18T07:24:36.914Z,2.95
2018-06-18T07:25:10.537Z,2.40
2018-06-18T07:25:45.574Z,2.40
2018-06-18T07:26:19.189Z,2.90
2018-06-18T07:26:52.422Z,2.80
2018-06-18T07:27:26.348Z,2.75
2018-06-18T07:27:59.957Z,2.40
2018-06-18T07:28:34.931Z,2.83
2018-06-18T07:29:09.327Z,2.72
2018-06-18T07:29:43.180Z,2.22
2018-06-18T07:30:16.828Z,2.33
2018-06-18T07:30:50.470Z,2.50
2018-06-18T07:31:24.356Z,2.50
2018-06-18T07:31:57.938Z,2.47
2018-06-18T07:32:31.510Z,2.70
2018-06-18T07:33:05.557Z,2.40
2018-06-18T07:33:43.658Z,2.25
2018-06-18T07:34:17.531Z,2.45
2018-06-18T07:34:51.118Z,2.60
2018-06-18T07:35:25.699Z,2.65
2018-06-18T07:35:59.527Z,2.70
2018-06-18T07:36:38.705Z,2.75
2018-06-18T07:37:13.119Z,2.90
2018-06-18T07:37:47.345Z,2.98
2018-06-18T07:38:20.931Z,2.50
2018-06-18T07:38:56.486Z,2.77
2018-06-18T07:39:30.596Z,3.25
2018-06-18T07:40:04.801Z,2.50
2018-06-18T07:40:38.349Z,2.50
2018-06-18T07:41:11.887Z,2.62
2018-06-18T07:41:46.046Z,2.52
2018-06-18T07:42:19.695Z,2.90
2018-06-18T07:42:53.341Z,2.52
2018-06-18T07:43:27.542Z,2.40
2018-06-18T07:44:01.240Z,3.27
2018-06-18T07:44:34.913Z,2.85
2018-06-18T07:45:09.748Z,2.93
2018-06-18T07:45:44.720Z,2.98
2018-06-18T07:46:19.319Z,2.30
2018-06-18T07:46:52.950Z,2.37
2018-06-18T07:47:27.449Z,2.40
2018-06-18T07:48:01.801Z,2.55
2018-06-18T07:48:35.350Z,2.80
2018-06-18T07:49:09.407Z,2.40
2018-06-18T07:49:43.094Z,2.20
2018-06-18T07:50:17.300Z,2.22
2018-06-18T07:50:50.923Z,2.50